sensor_id;sensor_type;location;lat;lon;timestamp;P1;durP1;ratioP1;P2;durP2;ratioP2
9789;SDS011;4934;50.852;8.098;2023-06-24T00:01:27;7.20;;;4.85;;
9789;SDS011;4934;50.852;8.098;2023-06-24T00:03:53;8.93;;;5.60;;
9789;SDS011;4934;50.852;8.098;2023-06-24T00:06:19;8.40;;;5.72;;
9789;SDS011;4934;50.852;8.098;2023-06-24T00:08:48;11.38;;;6.05;;
9789;SDS011;4934;50.852;8.098;2023-06-24T00:11:14;8.25;;;5.57;;
9789;SDS011;4934;50.852;8.098;2023-06-24T00:13:41;8.50;;;5.50;;
9789;SDS011;4934;50.852;8.098;2023-06-24T00:16:07;9.57;;;5.72;;
9789;SDS011;4934;50.852;8.098;2023-06-24T00:18:33;7.30;;;5.10;;
9789;SDS011;4934;50.852;8.098;2023-06-24T00:21:00;9.05;;;5.38;;
9789;SDS011;4934;50.852;8.098;2023-06-24T00:23:27;8.68;;;6.32;;
9789;SDS011;4934;50.852;8.098;2023-06-24T00:25:55;12.10;;;6.63;;
9789;SDS011;4934;50.852;8.098;2023-06-24T00:28:21;9.00;;;6.30;;
9789;SDS011;4934;50.852;8.098;2023-06-24T00:30:48;7.90;;;5.43;;
9789;SDS011;4934;50.852;8.098;2023-06-24T00:33:14;10.43;;;6.43;;
9789;SDS011;4934;50.852;8.098;2023-06-24T00:35:40;10.43;;;6.85;;
9789;SDS011;4934;50.852;8.098;2023-06-24T00:38:07;11.80;;;6.00;;
9789;SDS011;4934;50.852;8.098;2023-06-24T00:40:32;9.25;;;5.88;;
9789;SDS011;4934;50.852;8.098;2023-06-24T00:42:58;8.13;;;5.30;;
9789;SDS011;4934;50.852;8.098;2023-06-24T00:45:26;9.95;;;6.55;;
9789;SDS011;4934;50.852;8.098;2023-06-24T00:47:53;11.77;;;6.72;;
9789;SDS011;4934;50.852;8.098;2023-06-24T00:50:21;10.27;;;6.30;;
9789;SDS011;4934;50.852;8.098;2023-06-24T00:52:47;10.52;;;6.38;;
9789;SDS011;4934;50.852;8.098;2023-06-24T00:55:14;9.70;;;6.00;;
9789;SDS011;4934;50.852;8.098;2023-06-24T00:57:42;10.23;;;6.22;;
9789;SDS011;4934;50.852;8.098;2023-06-24T01:00:09;11.15;;;5.72;;
9789;SDS011;4934;50.852;8.098;2023-06-24T01:02:39;13.20;;;6.78;;
9789;SDS011;4934;50.852;8.098;2023-06-24T01:05:07;9.73;;;6.07;;
9789;SDS011;4934;50.852;8.098;2023-06-24T01:07:33;10.68;;;5.78;;
9789;SDS011;4934;50.852;8.098;2023-06-24T01:10:01;10.90;;;6.78;;
9789;SDS011;4934;50.852;8.098;2023-06-24T01:12:33;12.32;;;6.65;;
9789;SDS011;4934;50.852;8.098;2023-06-24T01:14:59;10.88;;;6.25;;
9789;SDS011;4934;50.852;8.098;2023-06-24T01:17:31;9.23;;;5.75;;
9789;SDS011;4934;50.852;8.098;2023-06-24T01:20:11;10.88;;;6.32;;
9789;SDS011;4934;50.852;8.098;2023-06-24T01:28:46;13.15;;;6.68;;
9789;SDS011;4934;50.852;8.098;2023-06-24T01:31:42;11.13;;;6.60;;
9789;SDS011;4934;50.852;8.098;2023-06-24T01:37:10;10.95;;;6.68;;
9789;SDS011;4934;50.852;8.098;2023-06-24T01:39:47;9.05;;;6.18;;
9789;SDS011;4934;50.852;8.098;2023-06-24T01:42:22;8.13;;;5.25;;
9789;SDS011;4934;50.852;8.098;2023-06-24T01:44:48;10.10;;;6.40;;
9789;SDS011;4934;50.852;8.098;2023-06-24T01:47:22;10.73;;;6.53;;
9789;SDS011;4934;50.852;8.098;2023-06-24T01:49:51;10.48;;;6.22;;
9789;SDS011;4934;50.852;8.098;2023-06-24T01:52:20;8.95;;;5.80;;
9789;SDS011;4934;50.852;8.098;2023-06-24T01:54:48;8.57;;;5.78;;
9789;SDS011;4934;50.852;8.098;2023-06-24T01:57:15;11.20;;;6.45;;
9789;SDS011;4934;50.852;8.098;2023-06-24T01:59:43;10.50;;;6.18;;
9789;SDS011;4934;50.852;8.098;2023-06-24T02:02:11;10.38;;;6.00;;
9789;SDS011;4934;50.852;8.098;2023-06-24T02:04:38;9.30;;;5.60;;
9789;SDS011;4934;50.852;8.098;2023-06-24T02:07:05;8.82;;;5.65;;
9789;SDS011;4934;50.852;8.098;2023-06-24T02:09:32;9.35;;;5.88;;
9789;SDS011;4934;50.852;8.098;2023-06-24T02:11:59;11.85;;;6.35;;
9789;SDS011;4934;50.852;8.098;2023-06-24T02:14:28;8.65;;;5.32;;
9789;SDS011;4934;50.852;8.098;2023-06-24T02:16:55;9.25;;;6.32;;
9789;SDS011;4934;50.852;8.098;2023-06-24T02:19:24;18.83;;;6.70;;
9789;SDS011;4934;50.852;8.098;2023-06-24T02:21:54;11.90;;;7.13;;
9789;SDS011;4934;50.852;8.098;2023-06-24T02:24:23;14.82;;;6.90;;
9789;SDS011;4934;50.852;8.098;2023-06-24T02:26:49;10.02;;;5.60;;
9789;SDS011;4934;50.852;8.098;2023-06-24T02:29:16;9.38;;;6.15;;
9789;SDS011;4934;50.852;8.098;2023-06-24T02:31:43;8.25;;;5.93;;
9789;SDS011;4934;50.852;8.098;2023-06-24T02:34:08;10.00;;;6.18;;
9789;SDS011;4934;50.852;8.098;2023-06-24T02:36:34;9.77;;;5.45;;
9789;SDS011;4934;50.852;8.098;2023-06-24T02:39:00;9.98;;;5.40;;
9789;SDS011;4934;50.852;8.098;2023-06-24T02:41:26;8.98;;;5.43;;
9789;SDS011;4934;50.852;8.098;2023-06-24T02:43:52;12.25;;;5.85;;
9789;SDS011;4934;50.852;8.098;2023-06-24T02:46:17;10.10;;;5.63;;
9789;SDS011;4934;50.852;8.098;2023-06-24T02:48:45;11.02;;;6.15;;
9789;SDS011;4934;50.852;8.098;2023-06-24T02:51:13;11.18;;;5.38;;
9789;SDS011;4934;50.852;8.098;2023-06-24T02:53:39;10.82;;;6.00;;
9789;SDS011;4934;50.852;8.098;2023-06-24T02:56:05;10.45;;;5.32;;
9789;SDS011;4934;50.852;8.098;2023-06-24T02:58:33;10.35;;;5.97;;
9789;SDS011;4934;50.852;8.098;2023-06-24T03:01:01;12.38;;;4.97;;
9789;SDS011;4934;50.852;8.098;2023-06-24T03:03:28;9.43;;;5.63;;
9789;SDS011;4934;50.852;8.098;2023-06-24T03:05:55;8.23;;;5.55;;
9789;SDS011;4934;50.852;8.098;2023-06-24T03:08:24;7.38;;;5.00;;
9789;SDS011;4934;50.852;8.098;2023-06-24T03:10:54;11.45;;;5.85;;
9789;SDS011;4934;50.852;8.098;2023-06-24T03:13:23;9.18;;;5.40;;
9789;SDS011;4934;50.852;8.098;2023-06-24T03:15:49;9.85;;;5.88;;
9789;SDS011;4934;50.852;8.098;2023-06-24T03:18:15;10.82;;;5.80;;
9789;SDS011;4934;50.852;8.098;2023-06-24T03:20:42;11.98;;;5.93;;
9789;SDS011;4934;50.852;8.098;2023-06-24T03:23:07;10.80;;;5.60;;
9789;SDS011;4934;50.852;8.098;2023-06-24T03:25:34;8.63;;;5.72;;
9789;SDS011;4934;50.852;8.098;2023-06-24T03:28:00;9.13;;;5.65;;
9789;SDS011;4934;50.852;8.098;2023-06-24T03:30:28;10.55;;;5.25;;
9789;SDS011;4934;50.852;8.098;2023-06-24T03:32:54;12.27;;;6.10;;
9789;SDS011;4934;50.852;8.098;2023-06-24T03:35:19;13.00;;;5.40;;
9789;SDS011;4934;50.852;8.098;2023-06-24T03:37:45;9.90;;;5.60;;
9789;SDS011;4934;50.852;8.098;2023-06-24T03:40:11;8.23;;;5.40;;
9789;SDS011;4934;50.852;8.098;2023-06-24T03:42:37;7.00;;;4.40;;
9789;SDS011;4934;50.852;8.098;2023-06-24T03:45:03;9.77;;;6.05;;
9789;SDS011;4934;50.852;8.098;2023-06-24T03:47:29;10.50;;;6.40;;
9789;SDS011;4934;50.852;8.098;2023-06-24T03:49:54;11.95;;;6.10;;
9789;SDS011;4934;50.852;8.098;2023-06-24T03:52:20;13.05;;;5.57;;
9789;SDS011;4934;50.852;8.098;2023-06-24T03:54:45;8.80;;;5.28;;
9789;SDS011;4934;50.852;8.098;2023-06-24T03:57:12;11.02;;;6.05;;
9789;SDS011;4934;50.852;8.098;2023-06-24T03:59:39;15.68;;;5.28;;
9789;SDS011;4934;50.852;8.098;2023-06-24T04:02:05;8.20;;;4.82;;
9789;SDS011;4934;50.852;8.098;2023-06-24T04:04:33;8.55;;;5.30;;
9789;SDS011;4934;50.852;8.098;2023-06-24T04:06:59;10.05;;;5.05;;
9789;SDS011;4934;50.852;8.098;2023-06-24T04:09:25;10.00;;;4.60;;
9789;SDS011;4934;50.852;8.098;2023-06-24T04:11:51;8.60;;;5.28;;
9789;SDS011;4934;50.852;8.098;2023-06-24T04:14:16;8.50;;;4.63;;
9789;SDS011;4934;50.852;8.098;2023-06-24T04:16:42;7.32;;;4.53;;
9789;SDS011;4934;50.852;8.098;2023-06-24T04:19:09;11.18;;;4.82;;
9789;SDS011;4934;50.852;8.098;2023-06-24T04:21:34;7.88;;;4.65;;
9789;SDS011;4934;50.852;8.098;2023-06-24T04:24:00;10.60;;;5.35;;
9789;SDS011;4934;50.852;8.098;2023-06-24T04:26:25;8.57;;;5.10;;
9789;SDS011;4934;50.852;8.098;2023-06-24T04:28:51;10.98;;;4.50;;
9789;SDS011;4934;50.852;8.098;2023-06-24T04:31:16;10.05;;;4.95;;
9789;SDS011;4934;50.852;8.098;2023-06-24T04:33:42;10.35;;;5.15;;
9789;SDS011;4934;50.852;8.098;2023-06-24T04:36:08;10.02;;;5.57;;
9789;SDS011;4934;50.852;8.098;2023-06-24T04:38:34;8.00;;;5.07;;
9789;SDS011;4934;50.852;8.098;2023-06-24T04:40:59;6.53;;;4.82;;
9789;SDS011;4934;50.852;8.098;2023-06-24T04:43:25;9.07;;;5.00;;
9789;SDS011;4934;50.852;8.098;2023-06-24T04:45:53;8.70;;;5.60;;
9789;SDS011;4934;50.852;8.098;2023-06-24T04:48:20;8.48;;;5.50;;
9789;SDS011;4934;50.852;8.098;2023-06-24T04:50:45;10.05;;;5.75;;
9789;SDS011;4934;50.852;8.098;2023-06-24T04:53:11;7.82;;;5.55;;
9789;SDS011;4934;50.852;8.098;2023-06-24T04:55:37;10.38;;;6.32;;
9789;SDS011;4934;50.852;8.098;2023-06-24T04:58:03;7.53;;;5.53;;
9789;SDS011;4934;50.852;8.098;2023-06-24T05:00:29;9.35;;;6.07;;
9789;SDS011;4934;50.852;8.098;2023-06-24T05:02:54;9.80;;;6.22;;
9789;SDS011;4934;50.852;8.098;2023-06-24T05:05:20;10.40;;;6.22;;
9789;SDS011;4934;50.852;8.098;2023-06-24T05:07:45;10.77;;;6.40;;
9789;SDS011;4934;50.852;8.098;2023-06-24T05:10:11;13.82;;;6.35;;
9789;SDS011;4934;50.852;8.098;2023-06-24T05:12:36;11.75;;;5.68;;
9789;SDS011;4934;50.852;8.098;2023-06-24T05:15:02;9.70;;;6.57;;
9789;SDS011;4934;50.852;8.098;2023-06-24T05:17:28;11.35;;;5.93;;
9789;SDS011;4934;50.852;8.098;2023-06-24T05:19:54;9.10;;;5.75;;
9789;SDS011;4934;50.852;8.098;2023-06-24T05:22:19;10.93;;;6.45;;
9789;SDS011;4934;50.852;8.098;2023-06-24T05:24:45;11.40;;;5.72;;
9789;SDS011;4934;50.852;8.098;2023-06-24T05:27:10;9.00;;;6.15;;
9789;SDS011;4934;50.852;8.098;2023-06-24T05:29:36;9.02;;;5.85;;
9789;SDS011;4934;50.852;8.098;2023-06-24T05:32:01;10.57;;;5.90;;
9789;SDS011;4934;50.852;8.098;2023-06-24T05:34:28;9.32;;;5.63;;
9789;SDS011;4934;50.852;8.098;2023-06-24T05:36:55;10.60;;;6.05;;
9789;SDS011;4934;50.852;8.098;2023-06-24T05:39:21;9.50;;;6.20;;
9789;SDS011;4934;50.852;8.098;2023-06-24T05:41:46;11.02;;;6.22;;
9789;SDS011;4934;50.852;8.098;2023-06-24T05:44:13;8.98;;;6.03;;
9789;SDS011;4934;50.852;8.098;2023-06-24T05:46:39;10.45;;;5.82;;
9789;SDS011;4934;50.852;8.098;2023-06-24T05:49:05;9.57;;;6.03;;
9789;SDS011;4934;50.852;8.098;2023-06-24T05:51:30;12.75;;;6.85;;
9789;SDS011;4934;50.852;8.098;2023-06-24T05:53:56;10.07;;;5.95;;
9789;SDS011;4934;50.852;8.098;2023-06-24T05:56:22;10.15;;;5.70;;
9789;SDS011;4934;50.852;8.098;2023-06-24T05:58:48;9.40;;;6.15;;
9789;SDS011;4934;50.852;8.098;2023-06-24T06:01:14;9.48;;;6.80;;
9789;SDS011;4934;50.852;8.098;2023-06-24T06:03:40;9.45;;;5.45;;
9789;SDS011;4934;50.852;8.098;2023-06-24T06:06:05;10.50;;;5.60;;
9789;SDS011;4934;50.852;8.098;2023-06-24T06:08:32;9.35;;;5.82;;
9789;SDS011;4934;50.852;8.098;2023-06-24T06:10:58;12.45;;;5.95;;
9789;SDS011;4934;50.852;8.098;2023-06-24T06:13:25;12.43;;;5.72;;
9789;SDS011;4934;50.852;8.098;2023-06-24T06:15:51;8.93;;;6.00;;
9789;SDS011;4934;50.852;8.098;2023-06-24T06:18:16;9.88;;;5.90;;
9789;SDS011;4934;50.852;8.098;2023-06-24T06:20:42;11.57;;;6.90;;
9789;SDS011;4934;50.852;8.098;2023-06-24T06:23:07;8.50;;;5.97;;
9789;SDS011;4934;50.852;8.098;2023-06-24T06:25:33;9.48;;;5.90;;
9789;SDS011;4934;50.852;8.098;2023-06-24T06:27:58;10.68;;;6.15;;
9789;SDS011;4934;50.852;8.098;2023-06-24T06:30:24;9.25;;;5.82;;
9789;SDS011;4934;50.852;8.098;2023-06-24T06:32:50;9.40;;;6.15;;
9789;SDS011;4934;50.852;8.098;2023-06-24T06:35:15;8.45;;;5.90;;
9789;SDS011;4934;50.852;8.098;2023-06-24T06:37:41;11.27;;;5.68;;
9789;SDS011;4934;50.852;8.098;2023-06-24T06:40:06;9.52;;;5.95;;
9789;SDS011;4934;50.852;8.098;2023-06-24T06:42:32;8.85;;;5.72;;
9789;SDS011;4934;50.852;8.098;2023-06-24T06:44:58;11.25;;;5.57;;
9789;SDS011;4934;50.852;8.098;2023-06-24T06:47:24;8.85;;;5.78;;
9789;SDS011;4934;50.852;8.098;2023-06-24T06:49:49;9.73;;;5.78;;
9789;SDS011;4934;50.852;8.098;2023-06-24T06:52:15;7.35;;;5.40;;
9789;SDS011;4934;50.852;8.098;2023-06-24T06:54:41;7.90;;;5.57;;
9789;SDS011;4934;50.852;8.098;2023-06-24T06:57:06;10.98;;;5.75;;
9789;SDS011;4934;50.852;8.098;2023-06-24T06:59:32;9.68;;;5.50;;
9789;SDS011;4934;50.852;8.098;2023-06-24T07:01:58;11.68;;;5.78;;
9789;SDS011;4934;50.852;8.098;2023-06-24T07:04:24;7.05;;;5.18;;
9789;SDS011;4934;50.852;8.098;2023-06-24T07:06:49;7.65;;;5.28;;
9789;SDS011;4934;50.852;8.098;2023-06-24T07:09:15;11.30;;;5.78;;
9789;SDS011;4934;50.852;8.098;2023-06-24T07:11:41;8.60;;;5.43;;
9789;SDS011;4934;50.852;8.098;2023-06-24T07:14:07;11.20;;;6.45;;
9789;SDS011;4934;50.852;8.098;2023-06-24T07:16:33;8.90;;;5.05;;
9789;SDS011;4934;50.852;8.098;2023-06-24T07:18:59;12.25;;;6.28;;
9789;SDS011;4934;50.852;8.098;2023-06-24T07:21:24;10.60;;;5.63;;
9789;SDS011;4934;50.852;8.098;2023-06-24T07:23:50;6.10;;;5.07;;
9789;SDS011;4934;50.852;8.098;2023-06-24T07:26:15;9.40;;;5.05;;
9789;SDS011;4934;50.852;8.098;2023-06-24T07:28:41;6.28;;;4.75;;
9789;SDS011;4934;50.852;8.098;2023-06-24T07:31:07;7.97;;;4.85;;
9789;SDS011;4934;50.852;8.098;2023-06-24T07:33:33;9.30;;;5.80;;
9789;SDS011;4934;50.852;8.098;2023-06-24T07:36:00;6.95;;;4.80;;
9789;SDS011;4934;50.852;8.098;2023-06-24T07:38:25;8.60;;;4.75;;
9789;SDS011;4934;50.852;8.098;2023-06-24T07:40:53;7.78;;;5.00;;
9789;SDS011;4934;50.852;8.098;2023-06-24T07:43:18;9.82;;;5.07;;
9789;SDS011;4934;50.852;8.098;2023-06-24T07:45:44;8.73;;;5.28;;
9789;SDS011;4934;50.852;8.098;2023-06-24T07:48:09;9.10;;;4.75;;
9789;SDS011;4934;50.852;8.098;2023-06-24T07:50:35;11.35;;;4.95;;
9789;SDS011;4934;50.852;8.098;2023-06-24T07:53:01;9.52;;;5.13;;
9789;SDS011;4934;50.852;8.098;2023-06-24T07:55:27;9.63;;;6.22;;
9789;SDS011;4934;50.852;8.098;2023-06-24T07:57:53;10.77;;;5.55;;
9789;SDS011;4934;50.852;8.098;2023-06-24T08:00:18;12.15;;;5.65;;
9789;SDS011;4934;50.852;8.098;2023-06-24T08:02:44;8.40;;;5.32;;
9789;SDS011;4934;50.852;8.098;2023-06-24T08:05:10;7.35;;;5.30;;
9789;SDS011;4934;50.852;8.098;2023-06-24T08:07:36;10.00;;;5.35;;
9789;SDS011;4934;50.852;8.098;2023-06-24T08:10:02;10.90;;;5.45;;
9789;SDS011;4934;50.852;8.098;2023-06-24T08:12:28;14.10;;;5.15;;
9789;SDS011;4934;50.852;8.098;2023-06-24T08:14:54;9.57;;;5.60;;
9789;SDS011;4934;50.852;8.098;2023-06-24T08:17:19;8.23;;;6.07;;
9789;SDS011;4934;50.852;8.098;2023-06-24T08:19:45;7.28;;;5.38;;
9789;SDS011;4934;50.852;8.098;2023-06-24T08:22:10;9.50;;;5.68;;
9789;SDS011;4934;50.852;8.098;2023-06-24T08:24:36;10.43;;;6.97;;
9789;SDS011;4934;50.852;8.098;2023-06-24T08:27:02;12.82;;;6.55;;
9789;SDS011;4934;50.852;8.098;2023-06-24T08:29:28;14.55;;;6.72;;
9789;SDS011;4934;50.852;8.098;2023-06-24T08:31:53;16.85;;;7.57;;
9789;SDS011;4934;50.852;8.098;2023-06-24T08:34:19;9.65;;;6.18;;
9789;SDS011;4934;50.852;8.098;2023-06-24T08:36:44;18.60;;;7.68;;
9789;SDS011;4934;50.852;8.098;2023-06-24T08:39:10;14.23;;;6.93;;
9789;SDS011;4934;50.852;8.098;2023-06-24T08:41:35;11.18;;;6.75;;
9789;SDS011;4934;50.852;8.098;2023-06-24T08:44:02;12.57;;;6.65;;
9789;SDS011;4934;50.852;8.098;2023-06-24T08:46:28;14.00;;;7.90;;
9789;SDS011;4934;50.852;8.098;2023-06-24T08:49:44;11.40;;;6.28;;
9789;SDS011;4934;50.852;8.098;2023-06-24T08:51:46;11.35;;;7.00;;
9789;SDS011;4934;50.852;8.098;2023-06-24T08:54:15;9.27;;;6.35;;
9789;SDS011;4934;50.852;8.098;2023-06-24T08:56:44;10.57;;;6.28;;
9789;SDS011;4934;50.852;8.098;2023-06-24T08:59:09;9.80;;;5.38;;
9789;SDS011;4934;50.852;8.098;2023-06-24T09:01:35;11.60;;;6.35;;
9789;SDS011;4934;50.852;8.098;2023-06-24T09:04:01;11.25;;;6.53;;
9789;SDS011;4934;50.852;8.098;2023-06-24T09:06:26;9.00;;;5.72;;
9789;SDS011;4934;50.852;8.098;2023-06-24T09:08:52;9.52;;;5.60;;
9789;SDS011;4934;50.852;8.098;2023-06-24T09:11:22;10.40;;;5.57;;
9789;SDS011;4934;50.852;8.098;2023-06-24T09:13:58;11.25;;;6.15;;
9789;SDS011;4934;50.852;8.098;2023-06-24T09:16:24;9.20;;;6.28;;
9789;SDS011;4934;50.852;8.098;2023-06-24T09:18:51;12.98;;;6.63;;
9789;SDS011;4934;50.852;8.098;2023-06-24T09:21:26;8.98;;;5.90;;
9789;SDS011;4934;50.852;8.098;2023-06-24T09:23:55;10.00;;;5.60;;
9789;SDS011;4934;50.852;8.098;2023-06-24T09:26:22;7.03;;;4.57;;
9789;SDS011;4934;50.852;8.098;2023-06-24T09:28:53;8.52;;;5.53;;
9789;SDS011;4934;50.852;8.098;2023-06-24T09:31:19;16.75;;;5.70;;
9789;SDS011;4934;50.852;8.098;2023-06-24T09:33:45;8.02;;;5.63;;
9789;SDS011;4934;50.852;8.098;2023-06-24T09:36:14;9.50;;;5.03;;
9789;SDS011;4934;50.852;8.098;2023-06-24T09:38:41;8.35;;;5.57;;
9789;SDS011;4934;50.852;8.098;2023-06-24T09:41:09;10.23;;;5.70;;
9789;SDS011;4934;50.852;8.098;2023-06-24T09:43:35;8.88;;;5.82;;
9789;SDS011;4934;50.852;8.098;2023-06-24T09:46:02;7.95;;;5.40;;
9789;SDS011;4934;50.852;8.098;2023-06-24T09:48:28;7.32;;;5.15;;
9789;SDS011;4934;50.852;8.098;2023-06-24T09:50:58;9.55;;;5.40;;
9789;SDS011;4934;50.852;8.098;2023-06-24T09:53:26;12.05;;;5.00;;
9789;SDS011;4934;50.852;8.098;2023-06-24T09:55:56;7.28;;;5.28;;
9789;SDS011;4934;50.852;8.098;2023-06-24T09:58:24;11.65;;;5.93;;
9789;SDS011;4934;50.852;8.098;2023-06-24T10:00:50;10.18;;;6.28;;
9789;SDS011;4934;50.852;8.098;2023-06-24T10:03:17;9.23;;;5.53;;
9789;SDS011;4934;50.852;8.098;2023-06-24T10:05:49;12.65;;;6.35;;
9789;SDS011;4934;50.852;8.098;2023-06-24T10:08:15;7.53;;;5.82;;
9789;SDS011;4934;50.852;8.098;2023-06-24T10:10:41;10.10;;;6.18;;
9789;SDS011;4934;50.852;8.098;2023-06-24T10:13:07;12.32;;;7.28;;
9789;SDS011;4934;50.852;8.098;2023-06-24T10:15:33;9.30;;;6.10;;
9789;SDS011;4934;50.852;8.098;2023-06-24T10:18:07;9.98;;;6.43;;
9789;SDS011;4934;50.852;8.098;2023-06-24T10:21:02;10.73;;;6.05;;
9789;SDS011;4934;50.852;8.098;2023-06-24T10:26:22;9.95;;;6.15;;
9789;SDS011;4934;50.852;8.098;2023-06-24T10:29:14;11.98;;;6.35;;
9789;SDS011;4934;50.852;8.098;2023-06-24T10:31:50;9.02;;;4.82;;
9789;SDS011;4934;50.852;8.098;2023-06-24T10:36:59;7.55;;;5.72;;
9789;SDS011;4934;50.852;8.098;2023-06-24T10:47:36;8.27;;;5.32;;
9789;SDS011;4934;50.852;8.098;2023-06-24T10:50:07;7.28;;;5.45;;
9789;SDS011;4934;50.852;8.098;2023-06-24T10:52:38;9.13;;;4.88;;
9789;SDS011;4934;50.852;8.098;2023-06-24T10:55:06;6.95;;;5.13;;
9789;SDS011;4934;50.852;8.098;2023-06-24T10:57:32;7.15;;;5.03;;
9789;SDS011;4934;50.852;8.098;2023-06-24T10:59:58;7.32;;;5.57;;
9789;SDS011;4934;50.852;8.098;2023-06-24T11:02:24;9.50;;;5.30;;
9789;SDS011;4934;50.852;8.098;2023-06-24T11:04:55;7.97;;;5.43;;
9789;SDS011;4934;50.852;8.098;2023-06-24T11:07:23;8.13;;;5.30;;
9789;SDS011;4934;50.852;8.098;2023-06-24T11:09:56;7.93;;;4.88;;
9789;SDS011;4934;50.852;8.098;2023-06-24T11:12:39;6.50;;;4.93;;
9789;SDS011;4934;50.852;8.098;2023-06-24T11:15:13;10.63;;;5.03;;
9789;SDS011;4934;50.852;8.098;2023-06-24T11:17:39;7.63;;;5.35;;
9789;SDS011;4934;50.852;8.098;2023-06-24T11:20:09;7.38;;;4.55;;
9789;SDS011;4934;50.852;8.098;2023-06-24T11:22:37;9.38;;;5.20;;
9789;SDS011;4934;50.852;8.098;2023-06-24T11:30:10;7.75;;;5.35;;
9789;SDS011;4934;50.852;8.098;2023-06-24T11:32:37;9.25;;;5.50;;
9789;SDS011;4934;50.852;8.098;2023-06-24T11:35:11;6.28;;;4.85;;
9789;SDS011;4934;50.852;8.098;2023-06-24T11:37:46;7.68;;;5.35;;
9789;SDS011;4934;50.852;8.098;2023-06-24T11:40:13;7.32;;;4.93;;
9789;SDS011;4934;50.852;8.098;2023-06-24T11:42:41;6.85;;;4.82;;
9789;SDS011;4934;50.852;8.098;2023-06-24T11:45:10;9.93;;;5.72;;
9789;SDS011;4934;50.852;8.098;2023-06-24T11:47:38;9.40;;;5.28;;
9789;SDS011;4934;50.852;8.098;2023-06-24T11:50:05;7.82;;;4.90;;
9789;SDS011;4934;50.852;8.098;2023-06-24T11:55:02;7.72;;;5.20;;
9789;SDS011;4934;50.852;8.098;2023-06-24T11:57:46;10.60;;;5.68;;
9789;SDS011;4934;50.852;8.098;2023-06-24T12:00:15;9.23;;;5.43;;
9789;SDS011;4934;50.852;8.098;2023-06-24T12:02:41;8.23;;;4.88;;
9789;SDS011;4934;50.852;8.098;2023-06-24T12:05:07;7.25;;;5.15;;
9789;SDS011;4934;50.852;8.098;2023-06-24T12:07:32;6.25;;;4.50;;
9789;SDS011;4934;50.852;8.098;2023-06-24T12:09:59;6.63;;;4.18;;
9789;SDS011;4934;50.852;8.098;2023-06-24T12:12:24;8.50;;;4.68;;
9789;SDS011;4934;50.852;8.098;2023-06-24T12:14:50;4.78;;;4.03;;
9789;SDS011;4934;50.852;8.098;2023-06-24T12:17:20;5.82;;;4.60;;
9789;SDS011;4934;50.852;8.098;2023-06-24T12:19:45;6.50;;;4.57;;
9789;SDS011;4934;50.852;8.098;2023-06-24T12:22:11;7.90;;;4.20;;
9789;SDS011;4934;50.852;8.098;2023-06-24T12:24:37;6.88;;;4.88;;
9789;SDS011;4934;50.852;8.098;2023-06-24T12:27:03;6.72;;;4.78;;
9789;SDS011;4934;50.852;8.098;2023-06-24T12:29:28;9.98;;;5.35;;
9789;SDS011;4934;50.852;8.098;2023-06-24T12:31:54;5.53;;;4.05;;
9789;SDS011;4934;50.852;8.098;2023-06-24T12:34:19;6.65;;;4.68;;
9789;SDS011;4934;50.852;8.098;2023-06-24T12:36:45;8.88;;;4.40;;
9789;SDS011;4934;50.852;8.098;2023-06-24T12:39:11;7.35;;;4.20;;
9789;SDS011;4934;50.852;8.098;2023-06-24T12:41:37;7.88;;;4.90;;
9789;SDS011;4934;50.852;8.098;2023-06-24T12:44:02;7.93;;;4.63;;
9789;SDS011;4934;50.852;8.098;2023-06-24T12:46:29;6.93;;;4.40;;
9789;SDS011;4934;50.852;8.098;2023-06-24T12:48:55;6.43;;;4.60;;
9789;SDS011;4934;50.852;8.098;2023-06-24T12:51:21;6.63;;;4.25;;
9789;SDS011;4934;50.852;8.098;2023-06-24T12:53:47;8.95;;;4.82;;
9789;SDS011;4934;50.852;8.098;2023-06-24T12:56:13;6.57;;;4.68;;
9789;SDS011;4934;50.852;8.098;2023-06-24T12:58:39;8.15;;;4.75;;
9789;SDS011;4934;50.852;8.098;2023-06-24T13:01:04;7.97;;;4.35;;
9789;SDS011;4934;50.852;8.098;2023-06-24T13:03:31;5.03;;;3.90;;
9789;SDS011;4934;50.852;8.098;2023-06-24T13:05:57;4.57;;;3.63;;
9789;SDS011;4934;50.852;8.098;2023-06-24T13:08:23;5.15;;;4.10;;
9789;SDS011;4934;50.852;8.098;2023-06-24T13:10:50;8.77;;;4.32;;
9789;SDS011;4934;50.852;8.098;2023-06-24T13:13:16;8.40;;;4.50;;
9789;SDS011;4934;50.852;8.098;2023-06-24T13:15:41;7.40;;;4.25;;
9789;SDS011;4934;50.852;8.098;2023-06-24T13:18:07;7.50;;;4.82;;
9789;SDS011;4934;50.852;8.098;2023-06-24T13:20:33;5.97;;;4.72;;
9789;SDS011;4934;50.852;8.098;2023-06-24T13:22:58;11.70;;;4.85;;
9789;SDS011;4934;50.852;8.098;2023-06-24T13:25:26;6.13;;;4.32;;
9789;SDS011;4934;50.852;8.098;2023-06-24T13:27:51;7.18;;;4.55;;
9789;SDS011;4934;50.852;8.098;2023-06-24T13:30:19;5.87;;;4.37;;
9789;SDS011;4934;50.852;8.098;2023-06-24T13:32:45;7.20;;;4.03;;
9789;SDS011;4934;50.852;8.098;2023-06-24T13:35:10;9.07;;;4.65;;
9789;SDS011;4934;50.852;8.098;2023-06-24T13:37:36;6.35;;;4.80;;
9789;SDS011;4934;50.852;8.098;2023-06-24T13:40:03;6.32;;;4.22;;
9789;SDS011;4934;50.852;8.098;2023-06-24T13:42:29;8.10;;;4.70;;
9789;SDS011;4934;50.852;8.098;2023-06-24T13:44:55;12.73;;;4.40;;
9789;SDS011;4934;50.852;8.098;2023-06-24T13:47:21;8.68;;;4.50;;
9789;SDS011;4934;50.852;8.098;2023-06-24T13:49:47;7.70;;;4.45;;
9789;SDS011;4934;50.852;8.098;2023-06-24T13:52:13;10.70;;;4.63;;
9789;SDS011;4934;50.852;8.098;2023-06-24T13:54:39;6.63;;;4.15;;
9789;SDS011;4934;50.852;8.098;2023-06-24T13:57:04;6.40;;;4.10;;
9789;SDS011;4934;50.852;8.098;2023-06-24T13:59:30;9.98;;;4.30;;
9789;SDS011;4934;50.852;8.098;2023-06-24T14:01:55;6.25;;;4.20;;
9789;SDS011;4934;50.852;8.098;2023-06-24T14:04:21;7.45;;;4.30;;
9789;SDS011;4934;50.852;8.098;2023-06-24T14:06:47;7.43;;;4.22;;
9789;SDS011;4934;50.852;8.098;2023-06-24T14:09:13;5.88;;;3.42;;
9789;SDS011;4934;50.852;8.098;2023-06-24T14:11:39;5.50;;;4.47;;
9789;SDS011;4934;50.852;8.098;2023-06-24T14:14:05;5.75;;;4.00;;
9789;SDS011;4934;50.852;8.098;2023-06-24T14:16:30;7.57;;;4.22;;
9789;SDS011;4934;50.852;8.098;2023-06-24T14:18:56;5.95;;;4.47;;
9789;SDS011;4934;50.852;8.098;2023-06-24T14:21:21;7.50;;;4.00;;
9789;SDS011;4934;50.852;8.098;2023-06-24T14:23:47;7.13;;;4.35;;
9789;SDS011;4934;50.852;8.098;2023-06-24T14:26:13;6.10;;;4.10;;
9789;SDS011;4934;50.852;8.098;2023-06-24T14:28:40;10.85;;;4.07;;
9789;SDS011;4934;50.852;8.098;2023-06-24T14:31:06;11.18;;;5.00;;
9789;SDS011;4934;50.852;8.098;2023-06-24T14:33:31;7.57;;;4.07;;
9789;SDS011;4934;50.852;8.098;2023-06-24T14:35:57;5.78;;;3.75;;
9789;SDS011;4934;50.852;8.098;2023-06-24T14:38:22;8.32;;;4.38;;
9789;SDS011;4934;50.852;8.098;2023-06-24T14:40:48;6.88;;;4.35;;
9789;SDS011;4934;50.852;8.098;2023-06-24T14:43:13;6.53;;;4.32;;
9789;SDS011;4934;50.852;8.098;2023-06-24T14:45:39;7.55;;;3.75;;
9789;SDS011;4934;50.852;8.098;2023-06-24T14:48:05;6.22;;;4.45;;
9789;SDS011;4934;50.852;8.098;2023-06-24T14:50:30;7.03;;;4.47;;
9789;SDS011;4934;50.852;8.098;2023-06-24T14:52:56;7.35;;;4.43;;
9789;SDS011;4934;50.852;8.098;2023-06-24T14:55:21;6.10;;;4.43;;
9789;SDS011;4934;50.852;8.098;2023-06-24T14:57:47;7.75;;;3.55;;
9789;SDS011;4934;50.852;8.098;2023-06-24T15:00:13;10.00;;;4.85;;
9789;SDS011;4934;50.852;8.098;2023-06-24T15:02:39;6.10;;;4.18;;
9789;SDS011;4934;50.852;8.098;2023-06-24T15:05:04;7.43;;;4.50;;
9789;SDS011;4934;50.852;8.098;2023-06-24T15:07:30;6.07;;;4.10;;
9789;SDS011;4934;50.852;8.098;2023-06-24T15:09:56;6.47;;;3.80;;
9789;SDS011;4934;50.852;8.098;2023-06-24T15:12:21;8.45;;;4.05;;
9789;SDS011;4934;50.852;8.098;2023-06-24T15:14:47;8.30;;;4.50;;
9789;SDS011;4934;50.852;8.098;2023-06-24T15:17:13;4.63;;;3.67;;
9789;SDS011;4934;50.852;8.098;2023-06-24T15:19:39;5.95;;;4.30;;
9789;SDS011;4934;50.852;8.098;2023-06-24T15:22:05;5.93;;;3.90;;
9789;SDS011;4934;50.852;8.098;2023-06-24T15:24:30;7.20;;;4.10;;
9789;SDS011;4934;50.852;8.098;2023-06-24T15:26:56;10.07;;;4.35;;
9789;SDS011;4934;50.852;8.098;2023-06-24T15:29:23;7.85;;;3.95;;
9789;SDS011;4934;50.852;8.098;2023-06-24T15:31:49;6.22;;;4.03;;
9789;SDS011;4934;50.852;8.098;2023-06-24T15:34:15;6.03;;;4.00;;
9789;SDS011;4934;50.852;8.098;2023-06-24T15:36:41;6.57;;;4.68;;
9789;SDS011;4934;50.852;8.098;2023-06-24T15:39:08;9.65;;;4.72;;